Time;durP1;ratioP1;P1;durP2;ratioP2;P2;SDS_P1;SDS_P2;PMS_P1;PMS_P2;Temp;Humidity;BMP_temperature;BMP_pressure;BME280_temperature;BME280_humidity;BME280_pressure;Samples;Min_cycle;Max_cycle;Signal;HPM_P1;HPM_P2
2023/06/24 00:02:17;;;;;;;2.60;1.45;;;22.30;53.00;;;;;;2520781;55;20983;-72
2023/06/24 00:04:43;;;;;;;3.15;1.30;;;22.20;53.00;;;;;;2286055;56;21376;-71
2023/06/24 00:07:10;;;;;;;2.87;1.40;;;22.20;53.00;;;;;;2287098;55;20990;-73
2023/06/24 00:09:37;;;;;;;2.60;1.25;;;22.10;53.00;;;;;;2519812;54;21070;-72
2023/06/24 00:12:04;;;;;;;2.40;1.20;;;22.10;53.00;;;;;;2285119;56;20954;-71
2023/06/24 00:14:30;;;;;;;2.60;1.30;;;22.00;53.00;;;;;;2526589;54;21051;-72
2023/06/24 00:16:56;;;;;;;2.92;1.42;;;22.00;53.10;;;;;;2519796;55;21597;-71
2023/06/24 00:19:24;;;;;;;2.72;1.60;;;22.00;53.20;;;;;;2284500;55;20971;-70
2023/06/24 00:21:53;;;;;;;2.75;1.50;;;21.90;53.20;;;;;;2286365;56;20932;-72
2023/06/24 00:24:20;;;;;;;2.75;1.45;;;21.90;53.30;;;;;;2537419;54;20963;-70
2023/06/24 00:26:46;;;;;;;2.55;1.37;;;21.80;53.30;;;;;;2552094;54;21000;-73
2023/06/24 00:29:13;;;;;;;2.80;1.40;;;21.80;53.30;;;;;;2312491;55;21603;-72
2023/06/24 00:31:40;;;;;;;2.80;1.40;;;21.70;53.30;;;;;;2313467;55;20967;-75
2023/06/24 00:34:08;;;;;;;2.58;1.48;;;21.70;53.40;;;;;;2552954;54;21475;-70
2023/06/24 00:36:38;;;;;;;3.05;1.65;;;21.70;53.60;;;;;;2312778;55;21003;-71
2023/06/24 00:39:05;;;;;;;3.62;1.60;;;21.60;53.70;;;;;;2313037;55;20975;-71
2023/06/24 00:41:34;;;;;;;2.30;1.20;;;21.60;53.70;;;;;;2313212;55;21012;-72
2023/06/24 00:44:01;;;;;;;3.25;1.60;;;21.60;53.70;;;;;;2312808;55;20994;-71
2023/06/24 00:46:27;;;;;;;2.92;1.60;;;21.50;53.70;;;;;;2553165;54;21008;-72
2023/06/24 00:48:57;;;;;;;2.47;1.12;;;21.50;53.70;;;;;;2534029;54;21020;-73
2023/06/24 00:51:29;;;;;;;2.45;1.35;;;21.40;53.70;;;;;;2306968;55;20995;-74
2023/06/24 00:53:56;;;;;;;2.75;1.45;;;21.40;53.80;;;;;;2553071;54;20940;-74
2023/06/24 00:56:31;;;;;;;3.33;1.48;;;21.40;53.80;;;;;;2313309;55;20971;-73
2023/06/24 00:58:58;;;;;;;3.25;1.83;;;21.30;53.80;;;;;;2528443;54;20965;-71
2023/06/24 01:01:24;;;;;;;3.50;1.92;;;21.30;54.00;;;;;;2544704;54;20944;-72
2023/06/24 01:03:51;;;;;;;3.12;1.83;;;21.30;54.20;;;;;;2526600;54;21805;-71
2023/06/24 01:06:18;;;;;;;3.35;1.95;;;21.30;54.30;;;;;;2550086;54;21390;-71
2023/06/24 01:08:50;;;;;;;3.25;1.60;;;21.20;54.30;;;;;;2312618;55;21047;-72
2023/06/24 01:11:17;;;;;;;2.65;1.30;;;21.20;54.20;;;;;;2312815;55;20955;-71
2023/06/24 01:13:43;;;;;;;3.15;1.55;;;21.20;54.20;;;;;;2312831;55;20971;-72
2023/06/24 01:16:22;;;;;;;2.90;1.55;;;21.20;54.20;;;;;;2312125;55;21019;-71
2023/06/24 01:18:51;;;;;;;2.65;1.50;;;21.20;54.30;;;;;;2552120;54;20935;-72
2023/06/24 01:22:59;;;;;;;3.15;1.60;;;21.20;54.40;;;;;;2302178;55;20981;-72
2023/06/24 01:29:54;;;;;;;2.50;1.30;;;21.10;54.10;;;;;;2533392;54;21091;-71
2023/06/24 01:32:35;;;;;;;2.60;1.12;;;21.10;54.10;;;;;;2552635;54;21448;-70
2023/06/24 01:35:06;;;;;;;2.42;1.17;;;21.10;54.30;;;;;;2526206;54;21027;-71
2023/06/24 01:37:37;;;;;;;2.83;1.48;;;21.00;54.50;;;;;;2553806;54;21071;-73
2023/06/24 01:41:58;;;;;;;2.60;1.30;;;21.00;54.60;;;;;;2315108;55;21035;-71
2023/06/24 01:44:28;;;;;;;3.10;1.40;;;20.90;54.30;;;;;;2313238;55;20980;-71
2023/06/24 01:46:55;;;;;;;2.67;1.30;;;20.90;54.60;;;;;;2312613;55;21474;-69
2023/06/24 01:49:22;;;;;;;2.80;1.30;;;20.90;54.60;;;;;;2312819;55;20960;-71
2023/06/24 01:51:51;;;;;;;3.37;1.40;;;20.80;54.60;;;;;;2552792;54;20935;-73
2023/06/24 01:54:22;;;;;;;2.65;1.30;;;20.70;54.60;;;;;;2313705;55;20999;-74
2023/06/24 01:56:54;;;;;;;2.87;1.20;;;20.70;54.70;;;;;;2553018;54;20983;-73
2023/06/24 01:59:20;;;;;;;2.67;1.40;;;20.70;54.70;;;;;;2312703;55;21608;-71
2023/06/24 02:01:51;;;;;;;2.47;1.10;;;20.70;54.70;;;;;;2312875;55;21760;-72
2023/06/24 02:04:33;;;;;;;2.67;1.33;;;20.60;54.60;;;;;;2313311;55;21003;-71
2023/06/24 02:07:01;;;;;;;2.15;1.15;;;20.60;54.70;;;;;;2313523;55;20923;-74
2023/06/24 02:09:34;;;;;;;3.00;1.58;;;20.60;54.70;;;;;;2553287;54;20959;-71
2023/06/24 02:12:07;;;;;;;2.50;1.30;;;20.50;54.70;;;;;;2489487;55;21008;-72
2023/06/24 02:14:36;;;;;;;2.55;1.25;;;20.50;54.80;;;;;;2552434;54;20984;-71
2023/06/24 02:17:04;;;;;;;3.05;1.60;;;20.50;54.80;;;;;;2494027;55;21829;-71
2023/06/24 02:19:36;;;;;;;2.40;1.20;;;20.40;54.80;;;;;;2550977;54;20947;-70
2023/06/24 02:22:09;;;;;;;2.92;1.30;;;20.40;54.80;;;;;;2550087;54;20964;-71
2023/06/24 02:24:43;;;;;;;3.12;1.75;;;20.40;54.80;;;;;;2295502;55;21339;-72
2023/06/24 02:27:33;;;;;;;2.97;1.37;;;20.40;54.90;;;;;;2518747;54;20968;-71
2023/06/24 02:30:11;;;;;;;2.50;1.40;;;20.30;54.90;;;;;;2545689;54;21016;-73
2023/06/24 02:33:01;;;;;;;2.30;1.30;;;20.10;54.80;;;;;;2506843;55;21002;-70
2023/06/24 02:35:37;;;;;;;2.80;1.30;;;20.30;55.00;;;;;;2290849;56;20913;-70
2023/06/24 02:38:16;;;;;;;3.17;1.42;;;20.20;55.10;;;;;;2295226;55;20991;-71
2023/06/24 02:40:47;;;;;;;2.50;1.30;;;20.20;55.20;;;;;;2312170;55;21467;-71
2023/06/24 02:43:24;;;;;;;2.53;1.40;;;20.20;55.30;;;;;;2312373;55;20952;-72
2023/06/24 02:45:51;;;;;;;4.32;1.70;;;20.20;55.30;;;;;;2552520;54;20959;-72
2023/06/24 02:48:21;;;;;;;2.90;1.70;;;20.10;55.20;;;;;;2548886;54;20971;-72
2023/06/24 02:50:52;;;;;;;3.20;1.80;;;20.10;55.50;;;;;;2290195;55;21858;-71
2023/06/24 02:53:28;;;;;;;3.95;1.65;;;20.10;55.60;;;;;;2551585;54;20955;-72
2023/06/24 02:55:58;;;;;;;3.90;1.50;;;20.10;55.70;;;;;;2522876;54;21009;-71
2023/06/24 02:58:31;;;;;;;2.90;1.48;;;20.00;55.50;;;;;;2311165;55;21015;-71
2023/06/24 03:01:02;;;;;;;3.97;1.50;;;20.00;55.50;;;;;;2551678;54;21004;-71
2023/06/24 03:03:39;;;;;;;2.67;1.33;;;20.00;55.50;;;;;;2549144;54;20987;-71
2023/06/24 03:06:13;;;;;;;2.67;1.37;;;20.00;55.50;;;;;;2547317;54;21008;-71
2023/06/24 03:08:46;;;;;;;2.70;1.58;;;19.90;55.40;;;;;;2526894;54;21017;-73
2023/06/24 03:11:16;;;;;;;3.05;1.55;;;19.90;55.40;;;;;;2515228;54;21112;-70
2023/06/24 03:13:54;;;;;;;2.80;1.37;;;19.90;55.40;;;;;;2542317;54;20989;-71
2023/06/24 03:16:23;;;;;;;2.85;1.48;;;19.80;55.40;;;;;;2499527;54;21033;-73
2023/06/24 03:18:52;;;;;;;2.90;1.60;;;19.80;55.50;;;;;;2312747;55;20959;-72
2023/06/24 03:21:28;;;;;;;3.55;1.23;;;19.80;55.50;;;;;;2311338;55;20951;-71
2023/06/24 03:23:59;;;;;;;3.03;1.37;;;19.80;55.50;;;;;;2304089;55;21037;-73
2023/06/24 03:26:40;;;;;;;2.72;1.60;;;19.70;55.50;;;;;;2521057;54;21032;-70
2023/06/24 03:29:12;;;;;;;3.00;1.55;;;19.70;55.60;;;;;;2300732;55;21015;-72
2023/06/24 03:31:43;;;;;;;2.80;1.33;;;19.60;55.60;;;;;;2542892;54;21045;-70
2023/06/24 03:34:16;;;;;;;2.33;1.23;;;19.60;55.60;;;;;;2530889;54;21027;-70
2023/06/24 03:36:43;;;;;;;3.13;1.50;;;19.60;55.70;;;;;;2312726;55;21488;-70
2023/06/24 03:39:12;;;;;;;2.28;1.10;;;19.60;55.70;;;;;;2527190;54;21389;-72
2023/06/24 03:41:39;;;;;;;3.08;1.60;;;19.60;55.70;;;;;;2307501;55;20940;-71
2023/06/24 03:44:05;;;;;;;3.03;1.40;;;19.50;55.70;;;;;;2553126;54;21031;-70
2023/06/24 03:46:33;;;;;;;2.92;1.20;;;19.50;55.80;;;;;;2546791;54;20969;-74
2023/06/24 03:49:11;;;;;;;2.83;1.50;;;19.50;55.90;;;;;;2289104;55;20947;-70
2023/06/24 03:51:38;;;;;;;2.85;1.33;;;19.50;55.90;;;;;;2520339;55;20974;-70
2023/06/24 03:54:06;;;;;;;3.03;1.60;;;19.40;55.90;;;;;;2517819;54;21013;-71
2023/06/24 03:56:33;;;;;;;2.70;1.30;;;19.40;55.90;;;;;;2285563;55;20999;-71
2023/06/24 03:58:59;;;;;;;2.33;1.40;;;19.40;56.00;;;;;;2286649;55;21053;-71
2023/06/24 04:01:26;;;;;;;2.62;1.30;;;19.40;56.00;;;;;;2520989;55;20970;-72
2023/06/24 04:03:52;;;;;;;2.70;1.40;;;19.40;56.00;;;;;;2520507;55;20949;-71
2023/06/24 04:06:19;;;;;;;2.80;1.40;;;19.30;55.90;;;;;;2286772;55;21033;-71
2023/06/24 04:08:48;;;;;;;2.45;1.15;;;19.30;56.00;;;;;;2284327;55;20970;-72
2023/06/24 04:11:15;;;;;;;2.70;1.15;;;19.30;56.00;;;;;;2290172;55;20978;-75
2023/06/24 04:13:41;;;;;;;2.55;1.25;;;19.20;56.00;;;;;;2287264;55;20950;-71
2023/06/24 04:16:08;;;;;;;2.20;1.12;;;19.20;56.00;;;;;;2520334;55;21534;-71
2023/06/24 04:18:39;;;;;;;3.40;1.30;;;19.20;56.00;;;;;;2519960;55;20934;-70
